Time;durP1;ratioP1;P1;durP2;ratioP2;P2;SDS_P1;SDS_P2;PMS_P1;PMS_P2;Temp;Humidity;BMP_temperature;BMP_pressure;BME280_temperature;BME280_humidity;BME280_pressure;Samples;Min_cycle;Max_cycle;Signal;HPM_P1;HPM_P2
2021/12/25 00:00:17;;;;;;;6.30;5.60;;;6.40;99.90;;;;;;5004213;28;20160;-67
2021/12/25 00:02:49;;;;;;;5.72;4.72;;;6.40;99.90;;;;;;5001902;28;20022;-66
2021/12/25 00:05:16;;;;;;;6.40;5.35;;;6.40;99.90;;;;;;5001040;28;20109;-67
2021/12/25 00:07:41;;;;;;;10.15;5.60;;;6.40;99.90;;;;;;5004526;28;20033;-67
2021/12/25 00:10:08;;;;;;;7.53;6.07;;;6.40;99.90;;;;;;5007767;28;20027;-68
2021/12/25 00:12:34;;;;;;;6.63;5.93;;;6.30;99.90;;;;;;5001518;28;20052;-66
2021/12/25 00:15:00;;;;;;;12.27;8.80;;;6.40;99.90;;;;;;5020375;28;20429;-68
2021/12/25 00:17:26;;;;;;;123.43;61.53;;;6.30;99.90;;;;;;5003224;28;20049;-66
2021/12/25 00:19:55;;;;;;;17.00;13.68;;;6.30;99.90;;;;;;5004978;28;20041;-65
2021/12/25 00:22:21;;;;;;;11.18;9.05;;;6.30;99.90;;;;;;5000026;28;20478;-66
2021/12/25 00:24:48;;;;;;;12.50;8.40;;;6.20;99.90;;;;;;5001208;28;20030;-64
2021/12/25 00:27:44;;;;;;;14.35;8.60;;;6.10;99.90;;;;;;5001247;28;20492;-68
2021/12/25 00:30:21;;;;;;;10.50;8.27;;;6.00;99.90;;;;;;5016869;28;20402;-68
2021/12/25 00:33:01;;;;;;;11.55;9.40;;;5.90;99.90;;;;;;5003992;28;20026;-67
2021/12/25 00:35:27;;;;;;;9.93;8.77;;;5.90;99.90;;;;;;5002895;28;20664;-67
2021/12/25 00:37:54;;;;;;;17.33;9.10;;;5.80;99.90;;;;;;5001802;28;20117;-67
2021/12/25 00:40:19;;;;;;;9.50;8.10;;;5.80;99.90;;;;;;5000447;28;20030;-68
2021/12/25 00:42:45;;;;;;;11.98;10.57;;;5.70;99.90;;;;;;5004248;28;20053;-68
2021/12/25 00:45:11;;;;;;;14.25;9.70;;;5.70;99.90;;;;;;5006736;28;20026;-67
2021/12/25 00:47:52;;;;;;;12.60;9.25;;;5.70;99.90;;;;;;5003558;28;20022;-67
2021/12/25 00:50:18;;;;;;;13.15;10.13;;;5.70;99.90;;;;;;5020460;28;20045;-68
2021/12/25 00:52:43;;;;;;;11.60;8.70;;;5.70;99.90;;;;;;5004990;28;20031;-67
2021/12/25 00:55:09;;;;;;;10.18;9.00;;;5.70;99.90;;;;;;5006216;28;20184;-67
2021/12/25 00:57:36;;;;;;;9.95;8.93;;;5.80;99.90;;;;;;5008037;28;20030;-67
2021/12/25 01:00:07;;;;;;;12.32;9.20;;;5.80;99.90;;;;;;5002523;28;20022;-68
2021/12/25 01:02:32;;;;;;;;;;;5.80;99.90;;;;;;5007349;28;20037;-68
2021/12/25 01:04:58;;;;;;;9.57;8.57;;;5.90;99.90;;;;;;5002981;28;20373;-67
2021/12/25 01:07:26;;;;;;;15.20;9.77;;;5.90;99.90;;;;;;4998814;28;20076;-67
2021/12/25 01:09:52;;;;;;;12.20;9.30;;;6.00;99.90;;;;;;5003519;28;20030;-67
2021/12/25 01:12:30;;;;;;;9.48;8.52;;;6.00;99.90;;;;;;5004281;28;20018;-69
2021/12/25 01:14:59;;;;;;;8.57;7.78;;;6.10;99.90;;;;;;5006575;28;20065;-67
2021/12/25 01:17:58;;;;;;;10.73;7.47;;;6.10;99.90;;;;;;5000943;28;20061;-67
2021/12/25 01:31:28;;;;;;;3.97;3.67;;;5.70;99.90;;;;;;5003886;28;20114;-67
2021/12/25 01:39:20;;;;;;;3.40;3.08;;;5.50;99.90;;;;;;5007667;28;20073;-68
2021/12/25 01:50:08;;;;;;;2.38;2.17;;;5.30;99.90;;;;;;5010949;28;20026;-67
2021/12/25 01:52:34;;;;;;;2.50;2.10;;;5.20;99.90;;;;;;5002830;28;20056;-67
2021/12/25 01:55:05;;;;;;;2.17;1.95;;;5.00;99.90;;;;;;5007215;28;20128;-67
2021/12/25 01:57:31;;;;;;;2.22;1.90;;;5.00;99.90;;;;;;5005038;28;20059;-67
2021/12/25 01:59:57;;;;;;;2.60;2.40;;;4.90;99.90;;;;;;5009192;28;20489;-67
2021/12/25 02:02:24;;;;;;;1.95;1.67;;;4.80;99.90;;;;;;5006201;28;20426;-69
2021/12/25 02:04:51;;;;;;;1.42;1.23;;;4.60;99.90;;;;;;5006048;28;20030;-68
2021/12/25 02:07:18;;;;;;;1.55;1.38;;;4.60;99.90;;;;;;5008974;28;20037;-68
2021/12/25 02:09:43;;;;;;;2.15;1.80;;;4.60;99.90;;;;;;5008835;28;20041;-68
2021/12/25 02:12:11;;;;;;;2.08;1.67;;;4.60;99.90;;;;;;5005561;28;20026;-67
2021/12/25 02:14:37;;;;;;;2.63;2.42;;;4.60;99.90;;;;;;5007612;28;20465;-66
2021/12/25 02:19:56;;;;;;;;;;;4.40;99.90;;;;;;5007942;28;20018;-66
2021/12/25 02:22:26;;;;;;;1.70;1.38;;;4.40;99.90;;;;;;5004940;28;20008;-66
2021/12/25 02:24:52;;;;;;;2.20;1.77;;;4.30;99.90;;;;;;5008540;28;20034;-67
2021/12/25 02:27:18;;;;;;;2.03;1.25;;;4.20;99.90;;;;;;5006770;28;20050;-67
2021/12/25 02:29:44;;;;;;;2.00;1.70;;;4.20;99.90;;;;;;5009018;28;20128;-66
2021/12/25 02:32:18;;;;;;;2.15;1.80;;;4.10;99.90;;;;;;5005182;28;20497;-67
2021/12/25 02:34:44;;;;;;;2.08;1.67;;;3.90;99.90;;;;;;5004393;28;20120;-67
2021/12/25 02:37:19;;;;;;;2.50;1.73;;;3.90;99.90;;;;;;5007296;28;20108;-67
2021/12/25 02:39:45;;;;;;;2.00;1.80;;;3.80;99.90;;;;;;5008949;28;20022;-67
2021/12/25 02:42:11;;;;;;;2.00;1.60;;;3.80;99.90;;;;;;5004282;28;20029;-67
2021/12/25 02:44:37;;;;;;;2.40;2.20;;;3.70;99.90;;;;;;5004156;28;20029;-67
2021/12/25 02:47:15;;;;;;;2.90;2.25;;;3.70;99.90;;;;;;5005032;28;20116;-67
2021/12/25 02:49:41;;;;;;;2.92;2.33;;;3.60;99.90;;;;;;5009014;28;20105;-66
2021/12/25 02:52:06;;;;;;;2.30;2.03;;;3.60;99.90;;;;;;5006803;28;20117;-67
2021/12/25 02:54:32;;;;;;;2.45;1.88;;;3.60;99.90;;;;;;5006496;28;20048;-66
2021/12/25 02:56:58;;;;;;;1.80;1.52;;;3.50;99.90;;;;;;5005676;28;20037;-67
2021/12/25 02:59:23;;;;;;;1.90;1.73;;;3.50;99.90;;;;;;5002676;28;20023;-67
2021/12/25 03:01:49;;;;;;;2.03;1.77;;;3.40;99.90;;;;;;5007387;28;20030;-67
2021/12/25 03:04:14;;;;;;;2.30;1.90;;;3.40;99.90;;;;;;5004581;28;20039;-66
2021/12/25 03:06:40;;;;;;;1.92;1.73;;;3.40;99.90;;;;;;5005862;28;20121;-68
2021/12/25 03:09:06;;;;;;;2.67;1.95;;;3.30;99.90;;;;;;5004165;28;20030;-67
2021/12/25 03:11:33;;;;;;;2.10;1.90;;;3.30;99.90;;;;;;5009419;28;20053;-68
2021/12/25 03:14:11;;;;;;;3.58;2.13;;;3.30;99.90;;;;;;5007160;28;20378;-67
2021/12/25 03:16:38;;;;;;;1.80;1.70;;;3.30;99.90;;;;;;5005749;28;20033;-67
2021/12/25 03:19:06;;;;;;;1.88;1.67;;;3.30;99.90;;;;;;5002269;28;20109;-67
2021/12/25 03:21:31;;;;;;;1.60;1.50;;;3.30;99.90;;;;;;5002557;28;20033;-67
2021/12/25 03:23:57;;;;;;;1.77;1.60;;;3.30;99.90;;;;;;5003259;28;20405;-67
2021/12/25 03:26:23;;;;;;;1.40;1.17;;;3.20;99.90;;;;;;5005663;28;20037;-68
2021/12/25 03:28:51;;;;;;;1.80;1.35;;;3.10;99.90;;;;;;5005378;28;20058;-68
2021/12/25 03:31:20;;;;;;;1.40;1.30;;;3.10;99.90;;;;;;5006498;28;20061;-67
2021/12/25 03:33:54;;;;;;;1.40;1.30;;;3.00;99.90;;;;;;5005733;28;20393;-66
2021/12/25 03:36:20;;;;;;;4.05;3.65;;;3.00;99.90;;;;;;5002792;28;20092;-67
2021/12/25 03:38:47;;;;;;;5.22;3.20;;;3.00;99.90;;;;;;5005070;28;20118;-66
2021/12/25 03:41:14;;;;;;;5.55;3.92;;;2.90;99.90;;;;;;5017618;28;20048;-67
2021/12/25 03:43:41;;;;;;;4.72;4.03;;;2.90;99.90;;;;;;5004365;28;20078;-68
2021/12/25 03:46:09;;;;;;;4.07;3.38;;;2.90;99.90;;;;;;5003966;28;20034;-66
2021/12/25 03:59:17;;;;;;;1.65;1.55;;;2.80;99.90;;;;;;5002348;28;20073;-67
2021/12/25 04:01:50;;;;;;;2.22;1.80;;;2.70;99.90;;;;;;5008657;28;20424;-67
2021/12/25 04:04:31;;;;;;;1.60;1.42;;;2.80;99.90;;;;;;4999819;28;20544;-67
2021/12/25 04:07:13;;;;;;;1.73;1.52;;;2.80;99.90;;;;;;5005506;28;20046;-67
2021/12/25 04:09:40;;;;;;;1.70;1.15;;;2.70;99.90;;;;;;5002400;28;20632;-68
2021/12/25 04:12:10;;;;;;;1.48;1.38;;;2.80;99.90;;;;;;5002864;28;20026;-67
2021/12/25 04:14:36;;;;;;;1.48;1.23;;;2.70;99.90;;;;;;5004999;28;20010;-67
2021/12/25 04:17:02;;;;;;;2.58;2.38;;;2.70;99.90;;;;;;5004442;28;20029;-67
2021/12/25 04:19:28;;;;;;;1.80;1.70;;;2.60;99.90;;;;;;5019588;28;20041;-66
2021/12/25 04:21:58;;;;;;;1.50;1.40;;;2.60;99.90;;;;;;5005304;28;20030;-68
2021/12/25 04:24:26;;;;;;;2.10;2.00;;;2.60;99.90;;;;;;5007878;28;20224;-67
2021/12/25 04:26:52;;;;;;;1.73;1.63;;;2.60;99.90;;;;;;5000140;28;20125;-67
2021/12/25 04:29:37;;;;;;;2.05;1.50;;;2.70;99.90;;;;;;5002829;28;20038;-68
2021/12/25 04:32:32;;;;;;;1.70;1.60;;;2.60;99.90;;;;;;5005025;28;20026;-66
2021/12/25 05:02:15;;;;;;;2.33;1.92;;;2.60;99.90;;;;;;5008825;28;20137;-66
2021/12/25 05:04:50;;;;;;;2.38;2.17;;;2.60;99.90;;;;;;5007028;28;20034;-66
2021/12/25 05:07:15;;;;;;;2.90;2.53;;;2.60;99.90;;;;;;5005751;28;20111;-67
2021/12/25 05:09:41;;;;;;;2.78;2.55;;;2.60;99.90;;;;;;5009778;28;20485;-66
2021/12/25 05:12:07;;;;;;;2.88;2.60;;;2.60;99.90;;;;;;5009583;28;20473;-66
2021/12/25 05:14:33;;;;;;;3.72;3.40;;;2.60;99.90;;;;;;5011037;28;20478;-66
2021/12/25 05:16:59;;;;;;;3.80;2.95;;;2.60;99.90;;;;;;5007360;28;20041;-65
2021/12/25 05:19:25;;;;;;;4.00;3.25;;;2.60;99.90;;;;;;5012492;28;20516;-65
2021/12/25 05:21:51;;;;;;;3.88;3.35;;;2.60;99.90;;;;;;5012789;28;20509;-66
2021/12/25 05:24:17;;;;;;;4.00;3.60;;;2.60;99.90;;;;;;5019506;28;20151;-66
2021/12/25 05:26:43;;;;;;;3.75;3.28;;;2.50;99.90;;;;;;5007322;28;20050;-66
2021/12/25 05:29:08;;;;;;;3.67;3.35;;;2.50;99.90;;;;;;5006902;28;20033;-67
2021/12/25 05:31:35;;;;;;;4.00;3.65;;;2.50;99.90;;;;;;5007531;28;20027;-67
2021/12/25 05:34:02;;;;;;;3.60;3.22;;;2.50;99.90;;;;;;5005683;28;20025;-65
2021/12/25 05:36:28;;;;;;;4.03;3.63;;;2.40;99.90;;;;;;5003163;28;20137;-66
2021/12/25 05:38:59;;;;;;;4.10;3.80;;;2.40;99.90;;;;;;5004278;28;20022;-65
2021/12/25 05:41:27;;;;;;;3.28;2.97;;;2.40;99.90;;;;;;5008382;28;20444;-66
2021/12/25 05:43:54;;;;;;;2.90;2.70;;;2.40;99.90;;;;;;5009207;28;20030;-66
2021/12/25 05:46:20;;;;;;;3.42;3.08;;;2.40;99.90;;;;;;5006746;28;20117;-66
2021/12/25 05:48:48;;;;;;;4.40;4.00;;;2.30;99.90;;;;;;5006942;28;20112;-66
2021/12/25 05:51:14;;;;;;;3.47;3.15;;;2.20;99.90;;;;;;5006713;28;20053;-66
2021/12/25 05:53:40;;;;;;;3.75;3.35;;;2.10;99.90;;;;;;5007232;28;20069;-66
2021/12/25 05:56:06;;;;;;;4.22;3.83;;;2.10;99.90;;;;;;5007221;28;20045;-66
2021/12/25 05:58:31;;;;;;;3.95;3.55;;;2.10;99.90;;;;;;5007219;28;20030;-65
2021/12/25 06:00:58;;;;;;;4.15;3.70;;;2.10;99.90;;;;;;5007140;28;20475;-67
2021/12/25 06:03:24;;;;;;;4.30;3.90;;;2.10;99.90;;;;;;5005904;28;20072;-67
2021/12/25 06:05:49;;;;;;;5.63;5.13;;;2.10;99.90;;;;;;5005241;28;20429;-65
2021/12/25 06:08:15;;;;;;;5.65;5.07;;;2.00;99.90;;;;;;5007410;28;20058;-66
2021/12/25 06:10:42;;;;;;;5.35;4.18;;;2.00;99.90;;;;;;5008718;28;20029;-66
2021/12/25 06:13:11;;;;;;;5.05;4.55;;;1.90;99.90;;;;;;5005530;28;20069;-67
2021/12/25 06:15:37;;;;;;;4.35;3.65;;;1.90;99.90;;;;;;5006095;28;20509;-67
2021/12/25 06:18:03;;;;;;;4.65;4.22;;;1.90;99.90;;;;;;5009135;28;20450;-67
2021/12/25 06:20:29;;;;;;;5.53;4.95;;;1.80;99.90;;;;;;5007851;28;20033;-66
2021/12/25 06:22:55;;;;;;;5.57;4.95;;;1.80;99.90;;;;;;5005899;28;20022;-67
2021/12/25 06:25:21;;;;;;;5.88;5.28;;;1.80;99.90;;;;;;5005858;28;20030;-66
2021/12/25 06:27:58;;;;;;;5.05;4.55;;;1.70;99.90;;;;;;5004695;28;20113;-66
2021/12/25 06:30:24;;;;;;;5.32;4.78;;;1.70;99.90;;;;;;5002857;28;20080;-66
2021/12/25 06:32:50;;;;;;;5.90;5.03;;;1.60;99.90;;;;;;5007177;28;20458;-68
2021/12/25 06:35:15;;;;;;;5.72;5.15;;;1.60;99.90;;;;;;5008594;28;20030;-66
2021/12/25 06:37:45;;;;;;;5.70;5.10;;;1.50;99.90;;;;;;5004917;28;20056;-68
2021/12/25 06:40:12;;;;;;;6.45;5.82;;;1.50;99.90;;;;;;5004969;28;20033;-67
2021/12/25 06:42:38;;;;;;;5.85;5.25;;;1.50;99.90;;;;;;5003540;28;20591;-66
2021/12/25 06:45:06;;;;;;;5.93;5.32;;;1.50;99.90;;;;;;5004593;28;20068;-66
2021/12/25 06:47:47;;;;;;;6.20;5.57;;;1.50;99.90;;;;;;5005390;28;20267;-67
2021/12/25 06:50:18;;;;;;;5.68;5.05;;;1.40;99.90;;;;;;5006234;28;20075;-67
2021/12/25 06:52:45;;;;;;;6.50;5.40;;;1.40;99.90;;;;;;5004281;28;20030;-67
2021/12/25 06:55:13;;;;;;;6.45;5.82;;;1.30;99.90;;;;;;5005754;28;20083;-66
2021/12/25 06:57:47;;;;;;;7.03;5.63;;;1.30;99.90;;;;;;5005103;28;20026;-67
2021/12/25 07:00:13;;;;;;;5.60;4.97;;;1.20;99.90;;;;;;5008305;28;20026;-67
2021/12/25 07:02:48;;;;;;;6.78;4.80;;;1.20;99.90;;;;;;4995131;28;20026;-67
2021/12/25 07:05:14;;;;;;;6.07;5.18;;;1.20;99.90;;;;;;5003614;28;20440;-65
2021/12/25 07:07:40;;;;;;;6.85;5.03;;;1.20;99.90;;;;;;5003858;28;20042;-65
2021/12/25 07:10:06;;;;;;;6.88;6.10;;;1.20;99.90;;;;;;5005968;28;20042;-66
2021/12/25 07:12:36;;;;;;;5.85;4.85;;;1.20;99.90;;;;;;5007062;28;20042;-65
2021/12/25 07:15:04;;;;;;;6.35;5.72;;;1.20;99.90;;;;;;5005859;28;20022;-65
2021/12/25 07:17:30;;;;;;;6.28;5.50;;;1.10;99.90;;;;;;5002131;28;20048;-67
2021/12/25 07:19:56;;;;;;;5.90;5.30;;;1.10;99.90;;;;;;5004799;28;20413;-66
2021/12/25 07:22:21;;;;;;;5.72;5.10;;;1.00;99.90;;;;;;5003264;28;20381;-67
2021/12/25 07:24:47;;;;;;;5.20;4.32;;;1.00;99.90;;;;;;5004916;28;20235;-67
2021/12/25 07:27:13;;;;;;;6.60;5.53;;;1.00;99.90;;;;;;5006464;28;20041;-65
2021/12/25 07:29:39;;;;;;;5.38;4.18;;;1.00;99.90;;;;;;5004281;28;20034;-66
2021/12/25 07:32:20;;;;;;;5.38;4.88;;;1.00;99.90;;;;;;5001315;28;20080;-66
2021/12/25 07:34:46;;;;;;;;;;;1.00;99.90;;;;;;5006652;28;20493;-66
2021/12/25 07:37:24;;;;;;;5.38;4.30;;;1.00;99.90;;;;;;5004336;28;19933;-66
2021/12/25 07:39:50;;;;;;;6.43;5.20;;;1.10;99.90;;;;;;5002324;28;20987;-65
2021/12/25 07:42:15;;;;;;;6.68;5.25;;;1.00;99.90;;;;;;4995197;28;20455;-66
2021/12/25 07:44:42;;;;;;;5.75;4.90;;;1.00;99.90;;;;;;5006030;28;20018;-66
2021/12/25 07:47:11;;;;;;;5.53;4.57;;;1.00;99.90;;;;;;5001860;28;20506;-65
2021/12/25 07:49:37;;;;;;;5.22;4.60;;;1.00;99.90;;;;;;5005101;28;20076;-67
2021/12/25 07:52:05;;;;;;;5.90;4.88;;;1.00;99.90;;;;;;5005799;28;20053;-66
2021/12/25 07:54:31;;;;;;;7.20;6.03;;;1.00;99.90;;;;;;5004215;28;20034;-65
2021/12/25 07:56:56;;;;;;;5.57;4.70;;;1.00;99.90;;;;;;4998956;28;20370;-66
2021/12/25 07:59:22;;;;;;;6.25;5.55;;;0.90;99.90;;;;;;5001100;28;20437;-65
2021/12/25 08:01:48;;;;;;;5.97;5.38;;;0.90;99.90;;;;;;5002928;28;20434;-67
2021/12/25 08:04:16;;;;;;;6.35;5.35;;;0.90;99.90;;;;;;5002534;28;20074;-67
2021/12/25 08:06:42;;;;;;;5.03;4.47;;;0.90;99.90;;;;;;4998522;28;20042;-66
2021/12/25 08:09:07;;;;;;;5.38;4.65;;;1.00;99.90;;;;;;5002886;28;20529;-67
2021/12/25 08:11:34;;;;;;;7.35;5.07;;;1.00;99.90;;;;;;4998345;28;20034;-66
2021/12/25 08:13:59;;;;;;;5.65;5.05;;;0.90;99.90;;;;;;5003644;28;20714;-67
2021/12/25 08:16:25;;;;;;;6.20;4.85;;;0.90;99.90;;;;;;5002431;28;20026;-65
2021/12/25 08:18:51;;;;;;;6.22;5.10;;;1.00;99.90;;;;;;5006305;28;20022;-66
2021/12/25 08:21:16;;;;;;;6.32;5.45;;;1.00;99.90;;;;;;5000986;28;20029;-66
2021/12/25 08:23:42;;;;;;;7.40;5.88;;;1.00;99.90;;;;;;5006072;28;20123;-66
2021/12/25 08:26:08;;;;;;;6.22;5.30;;;1.00;99.90;;;;;;5008619;28;20404;-67
2021/12/25 08:28:34;;;;;;;6.43;5.47;;;1.00;99.90;;;;;;5000509;28;20053;-67
2021/12/25 08:31:01;;;;;;;5.72;4.85;;;1.00;99.90;;;;;;5002051;28;20107;-67
2021/12/25 08:33:27;;;;;;;6.75;5.90;;;1.00;99.90;;;;;;5002455;28;20030;-66
2021/12/25 08:35:53;;;;;;;7.32;5.00;;;1.00;99.90;;;;;;5006121;28;20030;-66
2021/12/25 08:38:19;;;;;;;5.55;4.63;;;1.00;99.90;;;;;;5002391;28;20514;-66
2021/12/25 08:40:44;;;;;;;5.90;5.20;;;0.90;99.90;;;;;;5002762;28;20038;-65
2021/12/25 08:43:10;;;;;;;6.38;5.65;;;0.90;99.90;;;;;;5003097;28;20580;-65
2021/12/25 08:45:49;;;;;;;5.95;4.97;;;0.90;99.90;;;;;;5003012;28;20035;-66
2021/12/25 08:48:19;;;;;;;9.55;7.63;;;0.90;99.90;;;;;;5000998;28;21623;-66
2021/12/25 08:50:54;;;;;;;7.72;6.15;;;0.90;99.90;;;;;;5001397;28;20026;-66
2021/12/25 08:53:20;;;;;;;6.50;5.85;;;0.90;99.90;;;;;;5001178;28;20026;-68
2021/12/25 08:55:48;;;;;;;6.30;5.55;;;1.00;99.90;;;;;;5002821;28;20120;-66
2021/12/25 08:58:15;;;;;;;5.78;5.18;;;1.00;99.90;;;;;;5002980;28;20072;-66
2021/12/25 09:00:41;;;;;;;7.25;5.57;;;0.90;99.90;;;;;;5000904;28;20061;-66
2021/12/25 09:03:07;;;;;;;6.10;5.50;;;1.00;99.90;;;;;;5017584;28;20026;-66
2021/12/25 09:05:34;;;;;;;6.45;5.25;;;1.10;99.90;;;;;;5004795;28;20030;-66
2021/12/25 09:08:00;;;;;;;6.20;5.60;;;1.10;99.90;;;;;;5000651;28;20035;-66
2021/12/25 09:10:28;;;;;;;9.52;5.72;;;1.20;99.90;;;;;;5004333;28;20022;-66
2021/12/25 09:12:57;;;;;;;5.80;5.00;;;1.20;99.90;;;;;;5007483;28;20490;-67
2021/12/25 09:15:23;;;;;;;5.72;4.80;;;1.30;99.90;;;;;;5002116;28;20389;-66
2021/12/25 09:17:51;;;;;;;5.63;5.03;;;1.30;99.90;;;;;;5006424;28;20101;-66
2021/12/25 09:20:18;;;;;;;5.13;4.60;;;1.30;99.90;;;;;;5002761;28;20049;-66
2021/12/25 09:22:44;;;;;;;4.85;3.92;;;1.30;99.90;;;;;;5002069;28;20030;-66
2021/12/25 09:25:10;;;;;;;5.57;5.05;;;1.20;99.90;;;;;;5004554;28;20594;-67
2021/12/25 09:27:35;;;;;;;6.25;5.65;;;1.20;99.90;;;;;;5006082;28;20855;-67
2021/12/25 09:30:02;;;;;;;5.93;5.32;;;1.20;99.90;;;;;;5003936;28;20037;-66
2021/12/25 09:32:28;;;;;;;5.47;4.97;;;1.20;99.90;;;;;;5002634;28;20401;-66
2021/12/25 09:34:54;;;;;;;6.72;5.18;;;1.30;99.90;;;;;;5003579;28;20032;-67
2021/12/25 09:37:20;;;;;;;6.53;4.85;;;1.30;99.90;;;;;;5001498;28;20063;-66
2021/12/25 09:39:46;;;;;;;5.63;4.65;;;1.30;99.90;;;;;;5002688;28;20026;-64
2021/12/25 09:42:12;;;;;;;6.03;5.15;;;1.40;99.90;;;;;;5002363;28;20018;-65
2021/12/25 09:44:37;;;;;;;6.35;5.07;;;1.40;99.90;;;;;;5005254;28;20018;-65
2021/12/25 09:47:04;;;;;;;4.93;4.45;;;1.50;99.90;;;;;;5002971;28;20031;-65
2021/12/25 09:49:29;;;;;;;6.57;5.32;;;1.50;99.90;;;;;;5000444;28;20731;-65
2021/12/25 09:51:56;;;;;;;21.98;10.27;;;1.50;99.90;;;;;;5007275;28;20109;-65
2021/12/25 09:54:22;;;;;;;8.57;6.30;;;1.60;99.90;;;;;;5005957;28;20018;-66
2021/12/25 09:56:49;;;;;;;4.10;3.35;;;1.60;99.90;;;;;;5005013;28;20602;-65
2021/12/25 09:59:16;;;;;;;3.22;2.75;;;1.50;99.90;;;;;;5005593;28;20070;-65
2021/12/25 10:01:43;;;;;;;7.50;6.72;;;1.50;99.90;;;;;;5005003;28;20030;-65
2021/12/25 10:04:28;;;;;;;6.10;4.82;;;1.40;99.90;;;;;;5005175;28;20038;-66
2021/12/25 10:06:54;;;;;;;9.23;8.27;;;1.40;99.90;;;;;;5007956;28;20062;-66
2021/12/25 10:09:24;;;;;;;6.82;5.32;;;1.50;99.90;;;;;;5008979;28;20029;-66
2021/12/25 10:12:12;;;;;;;7.72;5.90;;;1.50;99.90;;;;;;5006021;28;20025;-66
2021/12/25 10:14:50;;;;;;;7.63;6.38;;;1.60;99.90;;;;;;5006538;28;20060;-66
2021/12/25 10:17:18;;;;;;;5.10;4.15;;;1.60;99.90;;;;;;5004273;28;20057;-66
2021/12/25 10:20:26;;;;;;;4.25;3.10;;;1.70;99.90;;;;;;5005773;28;20026;-66
2021/12/25 10:22:59;;;;;;;4.78;3.75;;;1.70;99.90;;;;;;5001990;28;20026;-66
2021/12/25 10:25:32;;;;;;;4.72;3.90;;;1.80;99.90;;;;;;5024460;28;20030;-65
2021/12/25 10:28:00;;;;;;;5.43;3.00;;;1.90;99.90;;;;;;5021044;28;20886;-66
2021/12/25 10:30:27;;;;;;;13.10;5.97;;;1.90;99.90;;;;;;5006760;28;20030;-66
2021/12/25 10:32:52;;;;;;;4.28;3.28;;;1.90;99.90;;;;;;5004793;28;20543;-62
2021/12/25 10:35:25;;;;;;;4.25;3.13;;;1.80;99.90;;;;;;5004772;28;20038;-62
2021/12/25 10:37:55;;;;;;;9.23;5.45;;;1.80;99.90;;;;;;5006305;28;20029;-62
2021/12/25 10:40:32;;;;;;;6.80;3.97;;;1.80;99.90;;;;;;5003901;28;20037;-62
2021/12/25 10:43:00;;;;;;;4.82;4.38;;;1.80;99.90;;;;;;5003707;28;20034;-62
2021/12/25 10:45:28;;;;;;;4.38;3.92;;;1.90;99.90;;;;;;5005390;28;20034;-62
2021/12/25 10:48:07;;;;;;;3.65;3.08;;;1.90;99.90;;;;;;5004989;28;20026;-62
2021/12/25 10:50:42;;;;;;;3.72;3.20;;;1.90;99.90;;;;;;5004577;28;20028;-62
2021/12/25 10:53:40;;;;;;;3.83;3.30;;;1.90;99.90;;;;;;5020340;28;20038;-62
2021/12/25 10:56:09;;;;;;;3.70;2.80;;;1.90;99.90;;;;;;5004376;28;20049;-62
2021/12/25 10:58:36;;;;;;;4.43;3.13;;;1.90;99.90;;;;;;5005152;28;20120;-62
2021/12/25 11:01:05;;;;;;;3.90;3.42;;;1.90;99.90;;;;;;5003315;28;20033;-61
2021/12/25 11:03:38;;;;;;;3.70;3.40;;;1.90;99.90;;;;;;5001867;28;20026;-63
2021/12/25 11:06:17;;;;;;;2.90;2.58;;;1.90;99.90;;;;;;5003960;28;20499;-62
2021/12/25 11:08:45;;;;;;;4.20;3.05;;;2.00;99.90;;;;;;5004549;28;20037;-63
2021/12/25 11:11:15;;;;;;;3.60;3.20;;;1.90;99.90;;;;;;5006169;28;20397;-62
2021/12/25 11:13:53;;;;;;;3.35;2.80;;;1.90;99.90;;;;;;5005848;28;20030;-62
2021/12/25 11:16:28;;;;;;;3.83;3.10;;;1.90;99.90;;;;;;5001953;28;20035;-62
2021/12/25 11:19:14;;;;;;;3.83;3.10;;;1.80;99.90;;;;;;5005548;28;20097;-62
2021/12/25 11:21:47;;;;;;;3.80;3.50;;;1.80;99.90;;;;;;5005657;28;20034;-62
2021/12/25 11:24:26;;;;;;;4.05;3.00;;;1.80;99.90;;;;;;5003912;28;20025;-62
2021/12/25 11:26:53;;;;;;;3.65;3.05;;;1.70;99.90;;;;;;5003080;28;20048;-62
2021/12/25 11:29:22;;;;;;;6.10;4.10;;;1.70;99.90;;;;;;5008334;28;20053;-62
2021/12/25 11:31:49;;;;;;;4.55;3.97;;;1.70;99.90;;;;;;5006264;28;20548;-62
2021/12/25 11:34:16;;;;;;;6.25;5.03;;;1.70;99.90;;;;;;5006246;28;20524;-62
2021/12/25 11:36:48;;;;;;;3.70;3.33;;;1.80;99.90;;;;;;5006924;28;20022;-62
2021/12/25 11:39:19;;;;;;;4.10;3.17;;;1.70;99.90;;;;;;5006203;28;20026;-62
2021/12/25 11:41:45;;;;;;;;;;;1.70;99.90;;;;;;5012487;28;20030;-62
2021/12/25 11:44:46;;;;;;;3.33;2.53;;;1.80;99.90;;;;;;5002016;28;19940;-62
2021/12/25 11:47:38;;;;;;;3.60;3.07;;;1.70;99.90;;;;;;5003597;28;20030;-62
2021/12/25 11:50:24;;;;;;;3.65;3.28;;;1.70;99.90;;;;;;5005413;28;20776;-62
2021/12/25 11:53:22;;;;;;;5.07;4.00;;;1.80;99.90;;;;;;5003598;28;20432;-62
2021/12/25 11:58:50;;;;;;;3.17;2.88;;;1.90;99.90;;;;;;5006424;28;20038;-62
2021/12/25 12:01:18;;;;;;;3.58;3.10;;;1.90;99.90;;;;;;5004158;28;20027;-62
2021/12/25 12:03:49;;;;;;;4.20;3.75;;;1.90;99.90;;;;;;5003082;28;20030;-62
2021/12/25 12:06:15;;;;;;;3.25;2.95;;;2.00;99.90;;;;;;5000681;28;20049;-62
2021/12/25 12:09:00;;;;;;;3.20;2.90;;;1.90;99.90;;;;;;5004168;28;20381;-62
2021/12/25 12:11:28;;;;;;;3.95;3.42;;;1.80;99.90;;;;;;5004231;28;20530;-62
2021/12/25 12:14:26;;;;;;;4.65;2.90;;;1.70;99.90;;;;;;5003432;28;20113;-62
2021/12/25 12:16:56;;;;;;;3.90;3.45;;;1.60;99.90;;;;;;4999946;28;20048;-63
2021/12/25 12:19:43;;;;;;;5.38;3.50;;;1.60;99.90;;;;;;5001873;28;20038;-63
2021/12/25 12:23:20;;;;;;;4.55;3.67;;;1.60;99.90;;;;;;5003720;28;20104;-62
2021/12/25 12:27:42;;;;;;;4.53;4.13;;;1.60;99.90;;;;;;5003218;28;20486;-62
2021/12/25 12:30:13;;;;;;;8.95;8.13;;;1.70;99.90;;;;;;5003326;28;20021;-63
2021/12/25 12:32:43;;;;;;;;;;;1.60;99.90;;;;;;5003133;28;20088;-62
2021/12/25 12:35:32;;;;;;;4.00;3.60;;;1.60;99.90;;;;;;5004665;28;19909;-62
2021/12/25 12:38:42;;;;;;;5.57;4.18;;;1.50;99.90;;;;;;5002306;28;20113;-63
2021/12/25 12:41:20;;;;;;;3.83;3.40;;;1.50;99.90;;;;;;5003072;28;20022;-62
2021/12/25 12:44:03;;;;;;;3.75;2.90;;;1.40;99.90;;;;;;5017899;28;20080;-62
2021/12/25 12:46:51;;;;;;;3.60;3.03;;;1.40;99.90;;;;;;5019552;28;20117;-63
2021/12/25 12:49:20;;;;;;;3.63;3.08;;;1.30;99.90;;;;;;5001850;28;20033;-62
2021/12/25 12:51:49;;;;;;;4.05;3.65;;;1.10;99.90;;;;;;5002436;28;20018;-63
2021/12/25 12:54:46;;;;;;;4.15;3.63;;;1.20;99.90;;;;;;5000681;28;20066;-63
2021/12/25 12:57:39;;;;;;;5.65;3.75;;;1.10;99.90;;;;;;5001066;28;20057;-62
2021/12/25 13:00:13;;;;;;;4.40;3.55;;;1.20;99.90;;;;;;5003711;28;20041;-63
2021/12/25 13:02:42;;;;;;;5.88;4.15;;;1.30;99.90;;;;;;5001019;28;20056;-63
2021/12/25 13:05:09;;;;;;;3.92;3.22;;;1.30;99.90;;;;;;5000684;28;20040;-62
2021/12/25 13:07:37;;;;;;;3.38;2.80;;;1.40;99.90;;;;;;5002014;28;20038;-62
2021/12/25 13:10:23;;;;;;;3.50;3.13;;;1.40;99.90;;;;;;5001334;28;20389;-62
2021/12/25 13:12:51;;;;;;;3.55;3.20;;;1.40;99.90;;;;;;5004906;28;20489;-62
2021/12/25 13:15:32;;;;;;;4.57;4.07;;;1.40;99.90;;;;;;5004401;28;20018;-63
2021/12/25 13:18:01;;;;;;;4.68;3.60;;;1.30;99.90;;;;;;5000526;28;20033;-61
2021/12/25 13:20:41;;;;;;;4.93;3.70;;;1.30;99.90;;;;;;5005849;28;21365;-61
2021/12/25 13:23:14;;;;;;;4.40;3.70;;;1.20;99.90;;;;;;5006794;28;20141;-61
2021/12/25 13:25:46;;;;;;;4.28;3.88;;;1.10;99.90;;;;;;5020801;28;20505;-61
2021/12/25 13:28:13;;;;;;;3.90;2.83;;;1.10;99.90;;;;;;5005724;28;20026;-62
2021/12/25 13:30:42;;;;;;;4.20;3.22;;;0.90;99.90;;;;;;5005620;28;20022;-61
2021/12/25 13:33:13;;;;;;;4.97;3.67;;;0.90;99.90;;;;;;5006957;28;20030;-61
2021/12/25 13:35:39;;;;;;;4.37;3.80;;;0.80;99.90;;;;;;5020736;28;20494;-61
2021/12/25 13:38:05;;;;;;;5.78;5.07;;;0.90;99.90;;;;;;5004771;28;20077;-61
2021/12/25 13:40:31;;;;;;;4.75;4.03;;;0.90;99.90;;;;;;5006670;28;20038;-61
2021/12/25 13:43:04;;;;;;;5.93;5.28;;;0.80;99.90;;;;;;5006174;28;20097;-61
2021/12/25 13:45:30;;;;;;;5.35;4.72;;;0.80;99.90;;;;;;5008707;28;20022;-61
2021/12/25 13:47:59;;;;;;;5.25;4.35;;;0.70;99.90;;;;;;5003896;28;20425;-61
2021/12/25 13:50:25;;;;;;;9.30;7.18;;;0.70;99.90;;;;;;5008445;28;20109;-61
2021/12/25 13:53:06;;;;;;;11.77;7.30;;;0.70;99.90;;;;;;5005412;28;20112;-62
2021/12/25 13:55:34;;;;;;;5.32;4.82;;;0.70;99.90;;;;;;5005069;28;20038;-61
2021/12/25 13:58:09;;;;;;;8.15;5.30;;;0.70;99.90;;;;;;5005735;28;20481;-61
2021/12/25 14:00:43;;;;;;;13.10;6.43;;;0.70;99.90;;;;;;5005468;28;20108;-61
2021/12/25 14:03:12;;;;;;;5.88;5.03;;;0.70;99.90;;;;;;5006573;28;20022;-62
2021/12/25 14:05:43;;;;;;;4.90;4.15;;;0.60;99.90;;;;;;5002180;28;20030;-61
2021/12/25 14:08:10;;;;;;;11.90;7.63;;;0.60;99.90;;;;;;5008540;28;20493;-61
2021/12/25 14:10:38;;;;;;;13.43;7.82;;;0.60;99.90;;;;;;5005993;28;20026;-61
2021/12/25 14:13:12;;;;;;;6.93;5.68;;;0.60;99.90;;;;;;5004215;28;20077;-61
2021/12/25 14:15:42;;;;;;;5.68;4.43;;;0.60;99.90;;;;;;5005622;28;20026;-61
2021/12/25 14:18:08;;;;;;;5.70;4.78;;;0.50;99.90;;;;;;5004166;28;20033;-62
2021/12/25 14:20:36;;;;;;;4.70;4.15;;;0.50;99.90;;;;;;5003729;28;20034;-61
2021/12/25 14:23:11;;;;;;;5.68;4.25;;;0.40;99.90;;;;;;5005585;28;20037;-60